sensor_id;sensor_type;location;lat;lon;timestamp;P1;durP1;ratioP1;P2;durP2;ratioP2
16660;SDS011;8444;52.012;5.048;2023-07-29T00:00:15;4.55;;;1.58;;
16660;SDS011;8444;52.012;5.048;2023-07-29T00:02:41;4.60;;;1.70;;
16660;SDS011;8444;52.012;5.048;2023-07-29T00:05:06;5.97;;;2.15;;
16660;SDS011;8444;52.012;5.048;2023-07-29T00:07:31;2.67;;;1.83;;
16660;SDS011;8444;52.012;5.048;2023-07-29T00:12:32;2.95;;;1.95;;
16660;SDS011;8444;52.012;5.048;2023-07-29T00:14:57;2.42;;;1.70;;
16660;SDS011;8444;52.012;5.048;2023-07-29T00:17:22;6.03;;;1.60;;
16660;SDS011;8444;52.012;5.048;2023-07-29T00:19:47;3.42;;;2.15;;
16660;SDS011;8444;52.012;5.048;2023-07-29T00:22:12;5.65;;;1.70;;
16660;SDS011;8444;52.012;5.048;2023-07-29T00:24:39;3.75;;;1.60;;
16660;SDS011;8444;52.012;5.048;2023-07-29T00:27:04;2.70;;;1.73;;
16660;SDS011;8444;52.012;5.048;2023-07-29T00:29:29;3.85;;;2.13;;
16660;SDS011;8444;52.012;5.048;2023-07-29T00:31:55;6.63;;;2.50;;
16660;SDS011;8444;52.012;5.048;2023-07-29T00:34:20;4.97;;;2.38;;
16660;SDS011;8444;52.012;5.048;2023-07-29T00:36:45;3.67;;;2.25;;
16660;SDS011;8444;52.012;5.048;2023-07-29T00:39:11;5.45;;;2.50;;
16660;SDS011;8444;52.012;5.048;2023-07-29T00:41:36;5.15;;;2.17;;
16660;SDS011;8444;52.012;5.048;2023-07-29T00:44:02;3.75;;;2.40;;
16660;SDS011;8444;52.012;5.048;2023-07-29T00:46:27;6.10;;;3.17;;
16660;SDS011;8444;52.012;5.048;2023-07-29T00:48:53;3.35;;;2.78;;
16660;SDS011;8444;52.012;5.048;2023-07-29T00:51:18;3.40;;;2.80;;
16660;SDS011;8444;52.012;5.048;2023-07-29T00:53:43;4.55;;;2.58;;
16660;SDS011;8444;52.012;5.048;2023-07-29T00:56:08;3.78;;;2.97;;
16660;SDS011;8444;52.012;5.048;2023-07-29T00:58:34;6.82;;;3.38;;
16660;SDS011;8444;52.012;5.048;2023-07-29T01:00:59;4.97;;;2.75;;
16660;SDS011;8444;52.012;5.048;2023-07-29T01:03:24;5.05;;;3.05;;
16660;SDS011;8444;52.012;5.048;2023-07-29T01:05:53;5.05;;;3.05;;
16660;SDS011;8444;52.012;5.048;2023-07-29T01:08:23;6.85;;;4.05;;
16660;SDS011;8444;52.012;5.048;2023-07-29T01:10:57;8.07;;;4.10;;
16660;SDS011;8444;52.012;5.048;2023-07-29T01:13:36;6.55;;;3.75;;
16660;SDS011;8444;52.012;5.048;2023-07-29T01:16:06;5.57;;;3.60;;
16660;SDS011;8444;52.012;5.048;2023-07-29T01:18:35;7.63;;;4.32;;
16660;SDS011;8444;52.012;5.048;2023-07-29T01:21:04;9.27;;;4.28;;
16660;SDS011;8444;52.012;5.048;2023-07-29T01:23:32;8.98;;;4.15;;
16660;SDS011;8444;52.012;5.048;2023-07-29T01:25:57;8.00;;;4.10;;
16660;SDS011;8444;52.012;5.048;2023-07-29T01:28:22;9.77;;;4.00;;
16660;SDS011;8444;52.012;5.048;2023-07-29T01:30:49;7.15;;;3.72;;
16660;SDS011;8444;52.012;5.048;2023-07-29T01:33:54;8.43;;;3.47;;
16660;SDS011;8444;52.012;5.048;2023-07-29T01:36:08;9.73;;;4.97;;
16660;SDS011;8444;52.012;5.048;2023-07-29T01:38:36;9.63;;;4.18;;
16660;SDS011;8444;52.012;5.048;2023-07-29T01:41:03;6.78;;;4.78;;
16660;SDS011;8444;52.012;5.048;2023-07-29T01:43:29;7.78;;;4.18;;
16660;SDS011;8444;52.012;5.048;2023-07-29T01:45:55;12.13;;;4.47;;
16660;SDS011;8444;52.012;5.048;2023-07-29T01:48:20;8.73;;;4.35;;
16660;SDS011;8444;52.012;5.048;2023-07-29T01:50:45;7.95;;;3.60;;
16660;SDS011;8444;52.012;5.048;2023-07-29T01:53:10;6.75;;;4.30;;
16660;SDS011;8444;52.012;5.048;2023-07-29T01:55:36;6.88;;;4.18;;
16660;SDS011;8444;52.012;5.048;2023-07-29T01:58:01;4.72;;;3.85;;
16660;SDS011;8444;52.012;5.048;2023-07-29T02:00:26;7.10;;;4.05;;
16660;SDS011;8444;52.012;5.048;2023-07-29T02:02:52;5.78;;;3.72;;
16660;SDS011;8444;52.012;5.048;2023-07-29T02:05:17;7.20;;;4.20;;
16660;SDS011;8444;52.012;5.048;2023-07-29T02:07:42;6.30;;;3.60;;
16660;SDS011;8444;52.012;5.048;2023-07-29T02:10:07;6.75;;;3.42;;
16660;SDS011;8444;52.012;5.048;2023-07-29T02:12:33;6.05;;;3.50;;
16660;SDS011;8444;52.012;5.048;2023-07-29T02:14:58;5.88;;;2.90;;
16660;SDS011;8444;52.012;5.048;2023-07-29T02:17:24;6.28;;;3.15;;
16660;SDS011;8444;52.012;5.048;2023-07-29T02:19:49;7.07;;;3.05;;
16660;SDS011;8444;52.012;5.048;2023-07-29T02:22:16;5.93;;;3.67;;
16660;SDS011;8444;52.012;5.048;2023-07-29T02:24:42;5.18;;;2.75;;
16660;SDS011;8444;52.012;5.048;2023-07-29T02:27:07;6.25;;;2.47;;
16660;SDS011;8444;52.012;5.048;2023-07-29T02:29:32;5.78;;;2.65;;
16660;SDS011;8444;52.012;5.048;2023-07-29T02:31:58;5.70;;;2.22;;
16660;SDS011;8444;52.012;5.048;2023-07-29T02:34:23;4.15;;;2.85;;
16660;SDS011;8444;52.012;5.048;2023-07-29T02:36:48;4.80;;;2.50;;
16660;SDS011;8444;52.012;5.048;2023-07-29T02:39:13;5.82;;;2.13;;
16660;SDS011;8444;52.012;5.048;2023-07-29T02:41:39;5.57;;;2.30;;
16660;SDS011;8444;52.012;5.048;2023-07-29T02:44:04;4.28;;;2.10;;
16660;SDS011;8444;52.012;5.048;2023-07-29T02:46:30;5.95;;;2.30;;
16660;SDS011;8444;52.012;5.048;2023-07-29T02:48:55;3.90;;;2.40;;
16660;SDS011;8444;52.012;5.048;2023-07-29T02:51:20;5.07;;;2.03;;
16660;SDS011;8444;52.012;5.048;2023-07-29T02:53:45;4.20;;;2.50;;
16660;SDS011;8444;52.012;5.048;2023-07-29T02:56:11;4.43;;;3.20;;
16660;SDS011;8444;52.012;5.048;2023-07-29T02:58:36;3.53;;;2.33;;
16660;SDS011;8444;52.012;5.048;2023-07-29T03:01:02;4.32;;;2.55;;
16660;SDS011;8444;52.012;5.048;2023-07-29T03:03:28;6.40;;;2.50;;
16660;SDS011;8444;52.012;5.048;2023-07-29T03:05:57;3.88;;;2.40;;
16660;SDS011;8444;52.012;5.048;2023-07-29T03:08:22;9.23;;;3.30;;
16660;SDS011;8444;52.012;5.048;2023-07-29T03:10:47;2.17;;;1.55;;
16660;SDS011;8444;52.012;5.048;2023-07-29T03:13:13;3.80;;;2.40;;
16660;SDS011;8444;52.012;5.048;2023-07-29T03:15:38;3.22;;;2.33;;
16660;SDS011;8444;52.012;5.048;2023-07-29T03:18:03;8.13;;;2.30;;
16660;SDS011;8444;52.012;5.048;2023-07-29T03:20:29;4.80;;;2.42;;
16660;SDS011;8444;52.012;5.048;2023-07-29T03:22:54;4.55;;;2.65;;
16660;SDS011;8444;52.012;5.048;2023-07-29T03:25:19;3.10;;;2.17;;
16660;SDS011;8444;52.012;5.048;2023-07-29T03:27:44;4.85;;;2.50;;
16660;SDS011;8444;52.012;5.048;2023-07-29T03:30:10;5.22;;;2.53;;
16660;SDS011;8444;52.012;5.048;2023-07-29T03:32:35;3.95;;;1.98;;
16660;SDS011;8444;52.012;5.048;2023-07-29T03:35:00;5.07;;;2.00;;
16660;SDS011;8444;52.012;5.048;2023-07-29T03:37:25;3.58;;;2.60;;
16660;SDS011;8444;52.012;5.048;2023-07-29T03:39:50;4.25;;;2.72;;
16660;SDS011;8444;52.012;5.048;2023-07-29T03:42:17;3.42;;;2.35;;
16660;SDS011;8444;52.012;5.048;2023-07-29T03:44:42;3.40;;;2.30;;
16660;SDS011;8444;52.012;5.048;2023-07-29T03:47:07;6.55;;;2.75;;
16660;SDS011;8444;52.012;5.048;2023-07-29T03:49:33;4.63;;;2.30;;
16660;SDS011;8444;52.012;5.048;2023-07-29T03:51:58;4.38;;;2.53;;
16660;SDS011;8444;52.012;5.048;2023-07-29T03:54:23;2.75;;;1.80;;
16660;SDS011;8444;52.012;5.048;2023-07-29T03:56:48;2.60;;;2.20;;
16660;SDS011;8444;52.012;5.048;2023-07-29T03:59:13;5.25;;;2.63;;
16660;SDS011;8444;52.012;5.048;2023-07-29T04:01:39;3.10;;;2.30;;
16660;SDS011;8444;52.012;5.048;2023-07-29T04:04:04;3.90;;;1.75;;
16660;SDS011;8444;52.012;5.048;2023-07-29T04:06:29;3.92;;;2.17;;
16660;SDS011;8444;52.012;5.048;2023-07-29T04:08:55;3.28;;;2.35;;
16660;SDS011;8444;52.012;5.048;2023-07-29T04:11:20;3.20;;;2.20;;
16660;SDS011;8444;52.012;5.048;2023-07-29T04:13:45;3.22;;;1.75;;
16660;SDS011;8444;52.012;5.048;2023-07-29T04:16:11;3.58;;;2.03;;
16660;SDS011;8444;52.012;5.048;2023-07-29T04:18:36;3.35;;;2.20;;
16660;SDS011;8444;52.012;5.048;2023-07-29T04:21:01;2.67;;;1.90;;
16660;SDS011;8444;52.012;5.048;2023-07-29T04:23:26;3.47;;;2.08;;
16660;SDS011;8444;52.012;5.048;2023-07-29T04:25:52;5.55;;;2.15;;
16660;SDS011;8444;52.012;5.048;2023-07-29T04:28:17;2.42;;;2.13;;
16660;SDS011;8444;52.012;5.048;2023-07-29T04:30:42;3.10;;;1.77;;
16660;SDS011;8444;52.012;5.048;2023-07-29T04:33:08;3.35;;;1.58;;
16660;SDS011;8444;52.012;5.048;2023-07-29T04:35:33;4.00;;;2.22;;
16660;SDS011;8444;52.012;5.048;2023-07-29T04:37:58;5.10;;;3.00;;
16660;SDS011;8444;52.012;5.048;2023-07-29T04:40:23;2.85;;;2.08;;
16660;SDS011;8444;52.012;5.048;2023-07-29T04:42:49;2.67;;;1.73;;
16660;SDS011;8444;52.012;5.048;2023-07-29T04:45:14;3.90;;;2.22;;
16660;SDS011;8444;52.012;5.048;2023-07-29T04:47:39;4.72;;;2.45;;
16660;SDS011;8444;52.012;5.048;2023-07-29T04:50:04;2.65;;;2.00;;
16660;SDS011;8444;52.012;5.048;2023-07-29T04:52:31;5.50;;;3.25;;
16660;SDS011;8444;52.012;5.048;2023-07-29T04:54:56;4.20;;;2.38;;
16660;SDS011;8444;52.012;5.048;2023-07-29T04:57:21;4.38;;;2.40;;
16660;SDS011;8444;52.012;5.048;2023-07-29T04:59:47;8.65;;;2.63;;
16660;SDS011;8444;52.012;5.048;2023-07-29T05:02:12;4.72;;;2.60;;
16660;SDS011;8444;52.012;5.048;2023-07-29T05:04:37;6.97;;;2.90;;
16660;SDS011;8444;52.012;5.048;2023-07-29T05:07:02;4.07;;;2.67;;
16660;SDS011;8444;52.012;5.048;2023-07-29T05:09:27;3.90;;;2.50;;
16660;SDS011;8444;52.012;5.048;2023-07-29T05:11:53;5.60;;;2.83;;
16660;SDS011;8444;52.012;5.048;2023-07-29T05:14:18;5.85;;;3.03;;
16660;SDS011;8444;52.012;5.048;2023-07-29T05:16:43;4.82;;;2.78;;
16660;SDS011;8444;52.012;5.048;2023-07-29T05:19:09;5.43;;;2.78;;
16660;SDS011;8444;52.012;5.048;2023-07-29T05:21:34;5.43;;;2.92;;
16660;SDS011;8444;52.012;5.048;2023-07-29T05:23:59;5.13;;;3.38;;
16660;SDS011;8444;52.012;5.048;2023-07-29T05:26:25;5.05;;;3.13;;
16660;SDS011;8444;52.012;5.048;2023-07-29T05:28:50;4.38;;;3.33;;
16660;SDS011;8444;52.012;5.048;2023-07-29T05:31:15;8.77;;;3.60;;
16660;SDS011;8444;52.012;5.048;2023-07-29T05:33:41;8.00;;;3.40;;
16660;SDS011;8444;52.012;5.048;2023-07-29T05:36:06;5.38;;;3.50;;
16660;SDS011;8444;52.012;5.048;2023-07-29T05:38:31;8.90;;;3.55;;
16660;SDS011;8444;52.012;5.048;2023-07-29T05:40:56;5.65;;;3.00;;
16660;SDS011;8444;52.012;5.048;2023-07-29T05:43:23;4.43;;;3.35;;
16660;SDS011;8444;52.012;5.048;2023-07-29T05:45:48;4.38;;;3.22;;
16660;SDS011;8444;52.012;5.048;2023-07-29T05:48:13;5.45;;;2.65;;
16660;SDS011;8444;52.012;5.048;2023-07-29T05:50:39;6.93;;;3.85;;
16660;SDS011;8444;52.012;5.048;2023-07-29T05:53:04;6.93;;;3.13;;
16660;SDS011;8444;52.012;5.048;2023-07-29T05:55:29;6.50;;;3.40;;
16660;SDS011;8444;52.012;5.048;2023-07-29T05:57:54;10.07;;;3.97;;
16660;SDS011;8444;52.012;5.048;2023-07-29T06:00:20;4.60;;;3.13;;
16660;SDS011;8444;52.012;5.048;2023-07-29T06:02:45;6.25;;;3.05;;
16660;SDS011;8444;52.012;5.048;2023-07-29T06:05:10;7.55;;;3.45;;
16660;SDS011;8444;52.012;5.048;2023-07-29T06:07:35;7.28;;;3.50;;
16660;SDS011;8444;52.012;5.048;2023-07-29T06:10:01;6.00;;;3.50;;
16660;SDS011;8444;52.012;5.048;2023-07-29T06:12:26;6.78;;;3.70;;
16660;SDS011;8444;52.012;5.048;2023-07-29T06:14:51;6.43;;;3.72;;
16660;SDS011;8444;52.012;5.048;2023-07-29T06:17:17;4.63;;;3.20;;
16660;SDS011;8444;52.012;5.048;2023-07-29T06:19:42;5.95;;;3.05;;
16660;SDS011;8444;52.012;5.048;2023-07-29T06:22:07;5.80;;;3.65;;
16660;SDS011;8444;52.012;5.048;2023-07-29T06:24:32;10.27;;;3.47;;
16660;SDS011;8444;52.012;5.048;2023-07-29T06:26:58;4.55;;;3.25;;
16660;SDS011;8444;52.012;5.048;2023-07-29T06:29:23;7.10;;;3.65;;
16660;SDS011;8444;52.012;5.048;2023-07-29T06:31:48;6.10;;;4.07;;
16660;SDS011;8444;52.012;5.048;2023-07-29T06:34:14;5.00;;;3.17;;
16660;SDS011;8444;52.012;5.048;2023-07-29T06:36:39;5.70;;;2.92;;
16660;SDS011;8444;52.012;5.048;2023-07-29T06:39:04;3.17;;;2.80;;
16660;SDS011;8444;52.012;5.048;2023-07-29T06:41:30;3.78;;;3.22;;
16660;SDS011;8444;52.012;5.048;2023-07-29T06:43:55;5.47;;;2.83;;
16660;SDS011;8444;52.012;5.048;2023-07-29T06:46:21;9.30;;;3.17;;
16660;SDS011;8444;52.012;5.048;2023-07-29T06:48:46;3.72;;;3.20;;
16660;SDS011;8444;52.012;5.048;2023-07-29T06:51:11;7.10;;;3.67;;
16660;SDS011;8444;52.012;5.048;2023-07-29T06:53:37;5.43;;;3.22;;
16660;SDS011;8444;52.012;5.048;2023-07-29T06:56:02;5.88;;;3.55;;
16660;SDS011;8444;52.012;5.048;2023-07-29T06:58:27;3.88;;;2.40;;
16660;SDS011;8444;52.012;5.048;2023-07-29T07:00:52;5.28;;;3.17;;
16660;SDS011;8444;52.012;5.048;2023-07-29T07:03:18;5.88;;;3.30;;
16660;SDS011;8444;52.012;5.048;2023-07-29T07:05:43;6.20;;;3.38;;
16660;SDS011;8444;52.012;5.048;2023-07-29T07:08:08;4.80;;;2.90;;
16660;SDS011;8444;52.012;5.048;2023-07-29T07:10:33;3.75;;;2.53;;
16660;SDS011;8444;52.012;5.048;2023-07-29T07:12:59;8.05;;;3.35;;
16660;SDS011;8444;52.012;5.048;2023-07-29T07:15:24;5.80;;;3.03;;
16660;SDS011;8444;52.012;5.048;2023-07-29T07:17:50;5.50;;;3.55;;
16660;SDS011;8444;52.012;5.048;2023-07-29T07:20:15;5.97;;;3.47;;
16660;SDS011;8444;52.012;5.048;2023-07-29T07:22:41;4.30;;;2.63;;
16660;SDS011;8444;52.012;5.048;2023-07-29T07:25:06;3.70;;;2.65;;
16660;SDS011;8444;52.012;5.048;2023-07-29T07:27:32;4.28;;;2.85;;
16660;SDS011;8444;52.012;5.048;2023-07-29T07:29:57;5.30;;;2.75;;
16660;SDS011;8444;52.012;5.048;2023-07-29T07:32:22;5.60;;;2.92;;
16660;SDS011;8444;52.012;5.048;2023-07-29T07:34:47;5.72;;;3.42;;
16660;SDS011;8444;52.012;5.048;2023-07-29T07:37:12;3.40;;;3.10;;
16660;SDS011;8444;52.012;5.048;2023-07-29T07:39:38;4.68;;;2.95;;
16660;SDS011;8444;52.012;5.048;2023-07-29T07:42:03;2.80;;;2.38;;
16660;SDS011;8444;52.012;5.048;2023-07-29T07:44:28;4.40;;;2.38;;
16660;SDS011;8444;52.012;5.048;2023-07-29T07:46:54;2.83;;;2.50;;
16660;SDS011;8444;52.012;5.048;2023-07-29T07:49:19;2.75;;;2.40;;
16660;SDS011;8444;52.012;5.048;2023-07-29T07:51:44;4.30;;;2.58;;
16660;SDS011;8444;52.012;5.048;2023-07-29T07:54:09;5.25;;;2.33;;
16660;SDS011;8444;52.012;5.048;2023-07-29T07:56:34;7.78;;;2.47;;
16660;SDS011;8444;52.012;5.048;2023-07-29T07:59:00;6.32;;;2.20;;
16660;SDS011;8444;52.012;5.048;2023-07-29T08:01:25;2.03;;;1.80;;
16660;SDS011;8444;52.012;5.048;2023-07-29T08:03:50;3.75;;;2.50;;
16660;SDS011;8444;52.012;5.048;2023-07-29T08:06:16;4.35;;;2.60;;
16660;SDS011;8444;52.012;5.048;2023-07-29T08:08:41;5.35;;;2.92;;
16660;SDS011;8444;52.012;5.048;2023-07-29T08:11:06;4.50;;;2.67;;
16660;SDS011;8444;52.012;5.048;2023-07-29T08:13:31;3.45;;;2.70;;
16660;SDS011;8444;52.012;5.048;2023-07-29T08:15:56;3.75;;;2.40;;
16660;SDS011;8444;52.012;5.048;2023-07-29T08:18:22;4.88;;;2.30;;
16660;SDS011;8444;52.012;5.048;2023-07-29T08:23:19;5.28;;;2.70;;
16660;SDS011;8444;52.012;5.048;2023-07-29T08:25:44;4.90;;;2.88;;
16660;SDS011;8444;52.012;5.048;2023-07-29T08:28:09;3.90;;;3.55;;
16660;SDS011;8444;52.012;5.048;2023-07-29T08:30:36;9.75;;;3.78;;
16660;SDS011;8444;52.012;5.048;2023-07-29T08:33:01;4.20;;;3.80;;
16660;SDS011;8444;52.012;5.048;2023-07-29T08:35:26;3.80;;;3.45;;
16660;SDS011;8444;52.012;5.048;2023-07-29T08:37:51;6.47;;;3.47;;
16660;SDS011;8444;52.012;5.048;2023-07-29T08:40:17;5.18;;;2.83;;
16660;SDS011;8444;52.012;5.048;2023-07-29T08:42:42;4.72;;;3.08;;
16660;SDS011;8444;52.012;5.048;2023-07-29T08:45:10;3.92;;;2.53;;
16660;SDS011;8444;52.012;5.048;2023-07-29T08:47:36;3.53;;;2.33;;
16660;SDS011;8444;52.012;5.048;2023-07-29T08:50:02;3.70;;;2.67;;
16660;SDS011;8444;52.012;5.048;2023-07-29T08:52:27;3.88;;;2.55;;
16660;SDS011;8444;52.012;5.048;2023-07-29T08:54:54;4.07;;;2.72;;
16660;SDS011;8444;52.012;5.048;2023-07-29T08:57:19;4.55;;;2.60;;
16660;SDS011;8444;52.012;5.048;2023-07-29T08:59:45;4.40;;;3.55;;
16660;SDS011;8444;52.012;5.048;2023-07-29T09:02:11;3.00;;;2.17;;
16660;SDS011;8444;52.012;5.048;2023-07-29T09:04:36;2.85;;;2.47;;
16660;SDS011;8444;52.012;5.048;2023-07-29T09:07:01;3.35;;;3.05;;
16660;SDS011;8444;52.012;5.048;2023-07-29T09:09:27;3.30;;;3.00;;
16660;SDS011;8444;52.012;5.048;2023-07-29T09:11:52;3.28;;;2.95;;
16660;SDS011;8444;52.012;5.048;2023-07-29T09:14:17;3.45;;;2.35;;
16660;SDS011;8444;52.012;5.048;2023-07-29T09:16:43;3.28;;;2.70;;
16660;SDS011;8444;52.012;5.048;2023-07-29T09:19:08;3.78;;;2.40;;
16660;SDS011;8444;52.012;5.048;2023-07-29T09:21:33;3.17;;;2.40;;
16660;SDS011;8444;52.012;5.048;2023-07-29T09:24:02;3.08;;;2.30;;
16660;SDS011;8444;52.012;5.048;2023-07-29T09:26:27;5.90;;;3.10;;
16660;SDS011;8444;52.012;5.048;2023-07-29T09:28:54;6.20;;;2.88;;
16660;SDS011;8444;52.012;5.048;2023-07-29T09:31:20;5.45;;;2.50;;
16660;SDS011;8444;52.012;5.048;2023-07-29T09:33:45;3.08;;;2.60;;
16660;SDS011;8444;52.012;5.048;2023-07-29T09:36:10;2.83;;;2.42;;
16660;SDS011;8444;52.012;5.048;2023-07-29T09:38:36;3.70;;;2.33;;
16660;SDS011;8444;52.012;5.048;2023-07-29T09:41:02;2.42;;;2.20;;
16660;SDS011;8444;52.012;5.048;2023-07-29T09:43:31;2.97;;;1.92;;
16660;SDS011;8444;52.012;5.048;2023-07-29T09:46:00;3.30;;;2.13;;
16660;SDS011;8444;52.012;5.048;2023-07-29T09:48:26;2.83;;;2.08;;
16660;SDS011;8444;52.012;5.048;2023-07-29T09:50:51;1.90;;;1.60;;
16660;SDS011;8444;52.012;5.048;2023-07-29T09:53:16;2.00;;;1.83;;
16660;SDS011;8444;52.012;5.048;2023-07-29T09:55:46;6.03;;;2.22;;
16660;SDS011;8444;52.012;5.048;2023-07-29T09:58:11;3.83;;;1.95;;
16660;SDS011;8444;52.012;5.048;2023-07-29T10:00:36;1.60;;;1.50;;
16660;SDS011;8444;52.012;5.048;2023-07-29T10:03:04;3.05;;;2.30;;
16660;SDS011;8444;52.012;5.048;2023-07-29T10:05:29;2.78;;;1.83;;
16660;SDS011;8444;52.012;5.048;2023-07-29T10:07:54;2.40;;;1.65;;
16660;SDS011;8444;52.012;5.048;2023-07-29T10:10:20;2.17;;;1.90;;
16660;SDS011;8444;52.012;5.048;2023-07-29T10:12:46;2.22;;;1.55;;
16660;SDS011;8444;52.012;5.048;2023-07-29T10:15:11;3.85;;;1.58;;
16660;SDS011;8444;52.012;5.048;2023-07-29T10:17:37;1.80;;;1.42;;
16660;SDS011;8444;52.012;5.048;2023-07-29T10:20:03;1.50;;;1.20;;
16660;SDS011;8444;52.012;5.048;2023-07-29T10:22:29;2.65;;;1.40;;
16660;SDS011;8444;52.012;5.048;2023-07-29T10:24:59;8.88;;;2.00;;
16660;SDS011;8444;52.012;5.048;2023-07-29T10:27:27;2.55;;;1.98;;
16660;SDS011;8444;52.012;5.048;2023-07-29T10:29:54;7.25;;;2.30;;
16660;SDS011;8444;52.012;5.048;2023-07-29T10:32:20;4.10;;;1.55;;
16660;SDS011;8444;52.012;5.048;2023-07-29T10:34:47;2.83;;;1.90;;
16660;SDS011;8444;52.012;5.048;2023-07-29T10:37:12;4.20;;;1.63;;
16660;SDS011;8444;52.012;5.048;2023-07-29T10:39:38;2.92;;;2.08;;
16660;SDS011;8444;52.012;5.048;2023-07-29T10:42:05;4.78;;;1.92;;
16660;SDS011;8444;52.012;5.048;2023-07-29T10:47:13;1.60;;;1.05;;
16660;SDS011;8444;52.012;5.048;2023-07-29T10:49:42;1.40;;;1.13;;
16660;SDS011;8444;52.012;5.048;2023-07-29T10:52:07;1.88;;;1.27;;
16660;SDS011;8444;52.012;5.048;2023-07-29T10:54:42;3.08;;;1.45;;
16660;SDS011;8444;52.012;5.048;2023-07-29T10:57:07;1.52;;;1.30;;
16660;SDS011;8444;52.012;5.048;2023-07-29T10:59:37;2.53;;;1.73;;
16660;SDS011;8444;52.012;5.048;2023-07-29T11:02:03;3.58;;;1.45;;
16660;SDS011;8444;52.012;5.048;2023-07-29T11:04:45;1.65;;;1.20;;
16660;SDS011;8444;52.012;5.048;2023-07-29T11:15:00;1.90;;;1.15;;
16660;SDS011;8444;52.012;5.048;2023-07-29T11:17:26;2.97;;;2.03;;
16660;SDS011;8444;52.012;5.048;2023-07-29T11:19:52;2.13;;;1.80;;
16660;SDS011;8444;52.012;5.048;2023-07-29T11:22:18;2.38;;;1.80;;
16660;SDS011;8444;52.012;5.048;2023-07-29T11:24:43;2.90;;;2.20;;
16660;SDS011;8444;52.012;5.048;2023-07-29T11:27:11;2.47;;;2.05;;
16660;SDS011;8444;52.012;5.048;2023-07-29T11:29:37;2.40;;;2.20;;
16660;SDS011;8444;52.012;5.048;2023-07-29T11:32:02;4.22;;;1.63;;
16660;SDS011;8444;52.012;5.048;2023-07-29T11:34:31;3.65;;;1.77;;
16660;SDS011;8444;52.012;5.048;2023-07-29T11:36:56;1.20;;;1.10;;
16660;SDS011;8444;52.012;5.048;2023-07-29T11:39:22;2.75;;;1.55;;
16660;SDS011;8444;52.012;5.048;2023-07-29T11:41:47;2.85;;;1.88;;
16660;SDS011;8444;52.012;5.048;2023-07-29T11:44:16;1.42;;;1.33;;
16660;SDS011;8444;52.012;5.048;2023-07-29T11:46:41;1.77;;;1.27;;
16660;SDS011;8444;52.012;5.048;2023-07-29T11:49:07;2.20;;;1.40;;
16660;SDS011;8444;52.012;5.048;2023-07-29T11:51:33;2.08;;;1.67;;
16660;SDS011;8444;52.012;5.048;2023-07-29T11:53:58;3.00;;;1.33;;
16660;SDS011;8444;52.012;5.048;2023-07-29T11:56:24;2.40;;;1.75;;
16660;SDS011;8444;52.012;5.048;2023-07-29T11:58:50;1.85;;;1.65;;
16660;SDS011;8444;52.012;5.048;2023-07-29T12:01:15;2.75;;;1.90;;
16660;SDS011;8444;52.012;5.048;2023-07-29T12:03:40;3.33;;;2.10;;
16660;SDS011;8444;52.012;5.048;2023-07-29T12:06:06;2.28;;;1.80;;
16660;SDS011;8444;52.012;5.048;2023-07-29T12:08:31;2.58;;;1.83;;
16660;SDS011;8444;52.012;5.048;2023-07-29T12:10:57;2.55;;;1.50;;
16660;SDS011;8444;52.012;5.048;2023-07-29T12:13:25;6.88;;;1.30;;
16660;SDS011;8444;52.012;5.048;2023-07-29T12:15:50;1.33;;;1.15;;
16660;SDS011;8444;52.012;5.048;2023-07-29T12:18:15;1.67;;;1.25;;
16660;SDS011;8444;52.012;5.048;2023-07-29T12:20:41;1.55;;;1.17;;
16660;SDS011;8444;52.012;5.048;2023-07-29T12:23:06;1.52;;;1.30;;
16660;SDS011;8444;52.012;5.048;2023-07-29T12:25:33;1.40;;;1.30;;
16660;SDS011;8444;52.012;5.048;2023-07-29T12:28:02;2.67;;;1.13;;
16660;SDS011;8444;52.012;5.048;2023-07-29T12:30:27;3.95;;;1.27;;
16660;SDS011;8444;52.012;5.048;2023-07-29T12:32:53;1.10;;;0.90;;
16660;SDS011;8444;52.012;5.048;2023-07-29T12:35:18;1.05;;;0.80;;
16660;SDS011;8444;52.012;5.048;2023-07-29T12:37:43;3.03;;;1.17;;
16660;SDS011;8444;52.012;5.048;2023-07-29T12:40:29;1.63;;;1.20;;
16660;SDS011;8444;52.012;5.048;2023-07-29T12:42:54;1.38;;;0.85;;
16660;SDS011;8444;52.012;5.048;2023-07-29T12:45:19;4.10;;;1.38;;
16660;SDS011;8444;52.012;5.048;2023-07-29T12:47:47;3.28;;;1.23;;
16660;SDS011;8444;52.012;5.048;2023-07-29T12:50:12;2.67;;;1.70;;
16660;SDS011;8444;52.012;5.048;2023-07-29T12:52:38;2.35;;;1.30;;
16660;SDS011;8444;52.012;5.048;2023-07-29T12:55:03;1.98;;;1.15;;
16660;SDS011;8444;52.012;5.048;2023-07-29T12:57:29;1.33;;;1.20;;
16660;SDS011;8444;52.012;5.048;2023-07-29T12:59:54;2.50;;;1.13;;
16660;SDS011;8444;52.012;5.048;2023-07-29T13:02:19;1.08;;;0.98;;
16660;SDS011;8444;52.012;5.048;2023-07-29T13:04:44;2.47;;;1.30;;
16660;SDS011;8444;52.012;5.048;2023-07-29T13:07:10;3.93;;;1.33;;
16660;SDS011;8444;52.012;5.048;2023-07-29T13:09:35;1.47;;;1.37;;
16660;SDS011;8444;52.012;5.048;2023-07-29T13:12:00;2.17;;;1.10;;
16660;SDS011;8444;52.012;5.048;2023-07-29T13:14:26;3.03;;;1.48;;
16660;SDS011;8444;52.012;5.048;2023-07-29T13:16:51;1.92;;;0.90;;
16660;SDS011;8444;52.012;5.048;2023-07-29T13:19:18;1.67;;;1.40;;
16660;SDS011;8444;52.012;5.048;2023-07-29T13:21:43;1.92;;;1.30;;
16660;SDS011;8444;52.012;5.048;2023-07-29T13:24:08;2.13;;;1.00;;
16660;SDS011;8444;52.012;5.048;2023-07-29T13:26:33;1.50;;;1.40;;
16660;SDS011;8444;52.012;5.048;2023-07-29T13:28:59;1.83;;;1.30;;
16660;SDS011;8444;52.012;5.048;2023-07-29T13:31:24;1.35;;;1.25;;
16660;SDS011;8444;52.012;5.048;2023-07-29T13:33:50;2.45;;;1.40;;
16660;SDS011;8444;52.012;5.048;2023-07-29T13:36:15;1.40;;;1.27;;
16660;SDS011;8444;52.012;5.048;2023-07-29T13:38:41;1.67;;;1.13;;
16660;SDS011;8444;52.012;5.048;2023-07-29T13:41:06;0.85;;;0.82;;
16660;SDS011;8444;52.012;5.048;2023-07-29T13:43:31;3.13;;;1.00;;
16660;SDS011;8444;52.012;5.048;2023-07-29T13:45:56;1.83;;;1.50;;
16660;SDS011;8444;52.012;5.048;2023-07-29T13:48:22;4.35;;;1.15;;
16660;SDS011;8444;52.012;5.048;2023-07-29T13:50:47;2.42;;;1.02;;
16660;SDS011;8444;52.012;5.048;2023-07-29T13:53:12;2.00;;;0.85;;
16660;SDS011;8444;52.012;5.048;2023-07-29T13:55:37;5.45;;;1.52;;
16660;SDS011;8444;52.012;5.048;2023-07-29T13:58:03;1.15;;;0.82;;
16660;SDS011;8444;52.012;5.048;2023-07-29T14:00:28;1.98;;;1.08;;
16660;SDS011;8444;52.012;5.048;2023-07-29T14:02:53;1.40;;;0.73;;
16660;SDS011;8444;52.012;5.048;2023-07-29T14:05:19;3.67;;;0.93;;
16660;SDS011;8444;52.012;5.048;2023-07-29T14:07:44;1.08;;;0.80;;
16660;SDS011;8444;52.012;5.048;2023-07-29T14:10:09;1.20;;;1.03;;
16660;SDS011;8444;52.012;5.048;2023-07-29T14:12:35;1.63;;;0.50;;
16660;SDS011;8444;52.012;5.048;2023-07-29T14:15:00;1.27;;;0.88;;
16660;SDS011;8444;52.012;5.048;2023-07-29T14:17:25;3.65;;;1.13;;
16660;SDS011;8444;52.012;5.048;2023-07-29T14:19:51;1.60;;;1.00;;
16660;SDS011;8444;52.012;5.048;2023-07-29T14:22:16;2.95;;;0.80;;
16660;SDS011;8444;52.012;5.048;2023-07-29T14:24:41;1.05;;;0.70;;
16660;SDS011;8444;52.012;5.048;2023-07-29T14:27:06;1.15;;;0.82;;
16660;SDS011;8444;52.012;5.048;2023-07-29T14:29:32;0.68;;;0.50;;
16660;SDS011;8444;52.012;5.048;2023-07-29T14:31:57;1.48;;;0.55;;
16660;SDS011;8444;52.012;5.048;2023-07-29T14:34:22;0.63;;;0.52;;
16660;SDS011;8444;52.012;5.048;2023-07-29T14:36:47;2.15;;;0.90;;
16660;SDS011;8444;52.012;5.048;2023-07-29T14:39:13;1.77;;;0.68;;
16660;SDS011;8444;52.012;5.048;2023-07-29T14:41:38;1.00;;;0.75;;
16660;SDS011;8444;52.012;5.048;2023-07-29T14:44:03;1.20;;;0.70;;
16660;SDS011;8444;52.012;5.048;2023-07-29T14:46:28;1.60;;;0.60;;
16660;SDS011;8444;52.012;5.048;2023-07-29T14:48:54;0.88;;;0.63;;
16660;SDS011;8444;52.012;5.048;2023-07-29T14:51:19;2.13;;;0.87;;
16660;SDS011;8444;52.012;5.048;2023-07-29T14:53:44;2.97;;;0.90;;
16660;SDS011;8444;52.012;5.048;2023-07-29T14:56:09;1.25;;;0.70;;
16660;SDS011;8444;52.012;5.048;2023-07-29T14:58:35;1.23;;;0.63;;
16660;SDS011;8444;52.012;5.048;2023-07-29T15:01:00;2.08;;;0.80;;
16660;SDS011;8444;52.012;5.048;2023-07-29T15:03:25;1.40;;;0.70;;
16660;SDS011;8444;52.012;5.048;2023-07-29T15:05:51;1.17;;;0.30;;